Terminal Aerodrome Forecast
Issued by NWS Jackson, MS

Home | Current Version | Previous Version | Text Only | Print | Product List | Glossary On
Versions: 1 2 3 4 5 6 7 8 9 10 11 12 13 14
731
FTUS44 KMEG 251131
TAFTUP
TAF
KTUP 251131Z 2512/2612 15010G22KT P6SM VCTS OVC060CB
     FM251300 VRB10G25KT 3SM TSRA BKN025CB OVC050
      TEMPO 2513/2515 1SM TSRA OVC015CB
     FM251700 10010KT P6SM VCSH BKN035
      TEMPO 2517/2519 BKN025
     FM252200 19012G20KT P6SM VCTS SCT035CB BKN080 BKN250
     FM260300 21006KT P6SM BKN040 BKN080=

USA.gov is the U.S. government's official web portal to all federal, state and local government web resources and services.